Time;durP1;ratioP1;P1;durP2;ratioP2;P2;SDS_P1;SDS_P2;PMS_P1;PMS_P2;Temp;Humidity;BMP_temperature;BMP_pressure;BME280_temperature;BME280_humidity;BME280_pressure;Samples;Min_cycle;Max_cycle;Signal;HPM_P1;HPM_P2
2024/01/25 00:03:56;;;;;;;64.57;8.90;;;;;;;10.37;100.00;101795.53;8340276;28;20562;-56
2024/01/25 00:07:56;;;;;;;60.78;7.82;;;;;;;10.40;100.00;101789.91;8377766;28;20045;-55
2024/01/25 00:11:58;;;;;;;63.25;8.93;;;;;;;10.37;100.00;101789.28;8376805;28;20517;-55
2024/01/25 00:15:58;;;;;;;54.47;8.23;;;;;;;10.43;100.00;101773.47;8374888;28;20494;-55
2024/01/25 00:19:59;;;;;;;71.20;10.45;;;;;;;10.40;100.00;101784.50;8377321;28;20498;-55
2024/01/25 00:23:59;;;;;;;69.00;10.70;;;;;;;10.38;100.00;101791.88;8392876;28;20037;-56
2024/01/25 00:28:00;;;;;;;51.03;8.68;;;;;;;10.33;100.00;101777.81;8376971;28;20037;-55
2024/01/25 00:32:00;;;;;;;63.13;8.80;;;;;;;10.36;100.00;101771.31;8378216;28;20036;-55
2024/01/25 00:36:01;;;;;;;57.92;8.38;;;;;;;10.31;100.00;101763.53;8377084;28;20045;-55
2024/01/25 00:40:02;;;;;;;62.92;8.13;;;;;;;10.29;100.00;101780.84;8378399;28;20478;-56
2024/01/25 00:44:03;;;;;;;63.03;9.43;;;;;;;10.30;100.00;101787.97;8377845;28;20044;-55
2024/01/25 00:48:03;;;;;;;56.45;8.52;;;;;;;10.28;100.00;101782.66;8360096;28;20059;-55
2024/01/25 00:52:04;;;;;;;54.80;7.90;;;;;;;10.29;100.00;101787.13;8376938;28;20048;-56
2024/01/25 00:56:05;;;;;;;57.08;8.18;;;;;;;10.31;100.00;101790.56;8375688;28;20052;-56
2024/01/25 01:00:08;;;;;;;66.65;9.05;;;;;;;10.34;100.00;101790.34;8377345;28;20080;-55
2024/01/25 01:04:09;;;;;;;54.63;9.15;;;;;;;10.30;100.00;101787.97;8377486;28;20040;-55
2024/01/25 01:08:11;;;;;;;50.92;7.38;;;;;;;10.27;100.00;101793.63;8377650;28;20082;-55
2024/01/25 01:12:11;;;;;;;66.53;8.93;;;;;;;10.21;100.00;101794.06;8375962;28;20045;-56
2024/01/25 01:16:11;;;;;;;54.45;7.68;;;;;;;10.15;100.00;101799.88;8373483;28;20588;-56
2024/01/25 01:20:12;;;;;;;65.72;8.10;;;;;;;10.10;100.00;101796.63;8376286;28;20029;-55
2024/01/25 01:24:13;;;;;;;57.08;8.60;;;;;;;10.06;100.00;101809.44;8374804;28;20041;-56
2024/01/25 01:28:13;;;;;;;46.83;6.85;;;;;;;9.99;100.00;101814.41;8376898;28;20028;-56
2024/01/25 01:32:13;;;;;;;58.58;8.98;;;;;;;9.93;100.00;101795.91;8377006;28;20090;-55
2024/01/25 01:36:14;;;;;;;49.60;7.15;;;;;;;9.93;100.00;101805.84;8376127;28;20457;-55
2024/01/25 01:40:14;;;;;;;47.17;8.15;;;;;;;9.95;100.00;101803.94;8375660;28;20036;-54
2024/01/25 01:44:15;;;;;;;65.60;8.90;;;;;;;9.96;100.00;101809.22;8375278;28;20040;-55
2024/01/25 01:48:16;;;;;;;57.03;9.18;;;;;;;9.90;100.00;101819.56;8358906;28;20041;-55
2024/01/25 01:52:17;;;;;;;54.30;7.38;;;;;;;9.83;100.00;101818.25;8375011;28;20048;-56
2024/01/25 01:56:19;;;;;;;69.18;9.52;;;;;;;9.80;100.00;101815.78;8373865;28;20064;-54
2024/01/25 02:00:20;;;;;;;68.60;9.85;;;;;;;9.73;100.00;101815.31;8361952;28;20044;-55
2024/01/25 02:04:21;;;;;;;47.55;7.28;;;;;;;9.61;100.00;101804.47;8372285;28;20040;-55
2024/01/25 02:08:22;;;;;;;59.80;8.20;;;;;;;9.55;100.00;101804.91;8372284;28;20033;-56
2024/01/25 02:12:23;;;;;;;69.07;9.70;;;;;;;9.71;100.00;101822.66;8372404;28;20047;-55
2024/01/25 02:16:23;;;;;;;56.30;8.95;;;;;;;9.61;100.00;101831.50;8368219;28;20045;-55
2024/01/25 02:20:25;;;;;;;58.30;8.15;;;;;;;9.57;100.00;101821.84;8373896;28;20090;-55
2024/01/25 02:24:25;;;;;;;66.05;9.55;;;;;;;9.51;100.00;101827.66;8376817;28;20086;-56
2024/01/25 02:28:26;;;;;;;56.70;9.60;;;;;;;9.49;100.00;101845.78;8374029;28;20098;-55
2024/01/25 02:32:26;;;;;;;58.33;8.60;;;;;;;9.37;100.00;101852.00;8374934;28;20048;-56
2024/01/25 02:36:26;;;;;;;53.83;8.35;;;;;;;9.38;100.00;101851.91;8369054;28;20055;-55
2024/01/25 02:40:27;;;;;;;59.85;8.75;;;;;;;9.39;100.00;101864.41;8382974;28;20063;-55
2024/01/25 02:44:27;;;;;;;72.25;11.48;;;;;;;9.42;100.00;101866.03;8374558;28;20122;-55
2024/01/25 02:48:28;;;;;;;61.10;8.98;;;;;;;9.29;100.00;101862.41;8370480;28;20045;-55
2024/01/25 02:52:28;;;;;;;75.43;9.55;;;;;;;9.20;100.00;101871.97;8374539;28;20064;-56
2024/01/25 02:56:34;;;;;;;70.28;10.35;;;;;;;9.28;100.00;101866.09;8373828;28;20770;-56
2024/01/25 03:00:34;;;;;;;73.95;8.57;;;;;;;9.36;100.00;101874.53;8372626;28;20049;-55
2024/01/25 03:04:35;;;;;;;51.40;8.90;;;;;;;9.36;100.00;101874.53;8371096;28;20089;-56
2024/01/25 03:08:35;;;;;;;53.05;7.90;;;;;;;9.24;100.00;101881.59;8372881;28;20484;-55
2024/01/25 03:12:36;;;;;;;67.38;8.70;;;;;;;9.20;100.00;101884.59;8372354;28;20049;-55
2024/01/25 03:16:36;;;;;;;65.80;9.50;;;;;;;9.18;100.00;101875.75;8369071;28;20045;-55
2024/01/25 03:20:37;;;;;;;63.78;10.50;;;;;;;9.21;100.00;101864.75;8372956;28;20446;-55
2024/01/25 03:24:38;;;;;;;59.40;8.80;;;;;;;9.19;100.00;101861.28;8372964;28;20406;-55
2024/01/25 03:28:40;;;;;;;66.55;9.43;;;;;;;9.06;100.00;101858.50;8372802;28;20106;-55
2024/01/25 03:32:40;;;;;;;68.38;10.52;;;;;;;8.95;100.00;101854.75;8388224;28;20067;-56
2024/01/25 03:36:40;;;;;;;61.55;9.95;;;;;;;9.08;100.00;101844.91;8371730;28;20483;-55
2024/01/25 03:40:41;;;;;;;70.32;9.65;;;;;;;9.08;100.00;101853.88;8371906;28;20447;-55
2024/01/25 03:44:42;;;;;;;77.25;10.93;;;;;;;9.08;100.00;101845.78;8363110;28;20053;-56
2024/01/25 03:48:43;;;;;;;71.90;11.57;;;;;;;9.09;100.00;101842.13;8372117;28;20612;-56
2024/01/25 03:52:43;;;;;;;70.53;11.25;;;;;;;9.20;100.00;101841.44;8372608;28;20450;-56
2024/01/25 03:56:43;;;;;;;74.25;10.70;;;;;;;9.08;100.00;101847.59;8372023;28;20384;-56
2024/01/25 04:00:44;;;;;;;66.55;9.93;;;;;;;9.08;100.00;101853.88;8374416;28;20074;-56
2024/01/25 04:04:44;;;;;;;66.68;9.50;;;;;;;8.98;100.00;101868.06;8369351;28;20032;-56
2024/01/25 04:08:45;;;;;;;72.45;10.35;;;;;;;9.02;100.00;101875.84;8370246;28;20037;-56
2024/01/25 04:12:45;;;;;;;70.80;10.85;;;;;;;8.99;100.00;101870.66;8372033;28;20033;-56
2024/01/25 04:16:46;;;;;;;61.63;8.52;;;;;;;8.92;100.00;101890.03;8369211;28;20045;-55
2024/01/25 04:20:47;;;;;;;72.25;9.90;;;;;;;8.97;100.00;101885.22;8355039;28;20045;-56
2024/01/25 04:24:49;;;;;;;67.60;9.13;;;;;;;8.92;100.00;101890.03;8376142;28;20048;-54
2024/01/25 04:28:49;;;;;;;62.55;8.57;;;;;;;8.88;100.00;101893.88;8376809;28;20086;-55
2024/01/25 04:32:51;;;;;;;62.80;8.73;;;;;;;8.86;100.00;101891.28;8376736;28;20040;-56
2024/01/25 04:36:51;;;;;;;55.70;7.82;;;;;;;8.83;100.00;101893.28;8377181;28;20090;-55
2024/01/25 04:40:52;;;;;;;62.88;7.47;;;;;;;8.63;100.00;101890.97;8377472;28;20633;-55
2024/01/25 04:44:52;;;;;;;67.97;8.98;;;;;;;8.59;100.00;101897.50;8376204;28;20036;-56
2024/01/25 04:48:53;;;;;;;61.10;8.27;;;;;;;8.52;100.00;101907.81;8375521;28;20119;-59
2024/01/25 04:52:53;;;;;;;68.63;8.68;;;;;;;8.37;100.00;101914.13;8362211;28;20040;-55
2024/01/25 04:56:54;;;;;;;61.90;8.38;;;;;;;8.29;100.00;101910.16;8372641;28;20341;-55
2024/01/25 05:00:55;;;;;;;60.05;7.65;;;;;;;8.07;100.00;101932.97;8371436;28;20029;-56
2024/01/25 05:04:55;;;;;;;50.38;8.65;;;;;;;7.97;100.00;101912.88;8353526;28;20037;-56
2024/01/25 05:08:56;;;;;;;63.20;9.05;;;;;;;7.84;100.00;101906.50;8379415;28;20499;-56
2024/01/25 05:12:56;;;;;;;68.07;9.40;;;;;;;7.73;100.00;101898.19;8375861;28;20513;-55
2024/01/25 05:16:56;;;;;;;51.80;8.68;;;;;;;7.76;100.00;101906.09;8386401;28;20406;-55
2024/01/25 05:20:57;;;;;;;60.53;10.25;;;;;;;7.78;100.00;101904.16;8376035;28;20028;-55
2024/01/25 05:24:58;;;;;;;67.38;8.32;;;;;;;7.78;100.00;101904.16;8372114;28;20063;-55
2024/01/25 05:28:58;;;;;;;75.40;8.25;;;;;;;7.74;100.00;101908.00;8375019;28;20483;-55
2024/01/25 05:32:59;;;;;;;63.15;8.63;;;;;;;7.82;100.00;101911.13;8370084;28;20044;-55
2024/01/25 05:36:59;;;;;;;62.85;7.78;;;;;;;7.79;100.00;101905.91;8369473;28;20040;-55
2024/01/25 05:41:00;;;;;;;74.22;8.57;;;;;;;7.75;100.00;101912.41;8364539;28;20044;-56
2024/01/25 05:45:02;;;;;;;67.68;8.90;;;;;;;7.75;100.00;101906.19;8371756;28;20041;-56
2024/01/25 05:49:02;;;;;;;72.35;8.93;;;;;;;7.76;100.00;101911.47;8374971;28;20513;-56
2024/01/25 05:53:03;;;;;;;67.53;8.98;;;;;;;7.75;100.00;101909.72;8363186;28;20467;-56
2024/01/25 05:57:04;;;;;;;62.97;8.38;;;;;;;7.79;100.00;101911.31;8387529;28;20124;-56
2024/01/25 06:01:04;;;;;;;67.82;10.15;;;;;;;7.82;100.00;101916.50;8384026;28;20059;-58
2024/01/25 06:05:05;;;;;;;52.92;8.05;;;;;;;7.81;100.00;101912.06;8385540;28;20029;-56
2024/01/25 06:09:05;;;;;;;58.75;9.07;;;;;;;7.76;100.00;101915.97;8373976;28;20099;-56
2024/01/25 06:13:08;;;;;;;58.40;8.48;;;;;;;7.80;100.00;101923.78;8401112;28;20073;-56
2024/01/25 06:17:08;;;;;;;61.55;7.68;;;;;;;7.77;100.00;101936.56;8365583;28;20090;-55
2024/01/25 06:21:09;;;;;;;57.58;8.80;;;;;;;7.60;100.00;101937.50;8352261;28;20499;-57
2024/01/25 06:25:09;;;;;;;61.47;9.25;;;;;;;7.58;100.00;101944.81;8353132;28;20083;-56
2024/01/25 06:29:09;;;;;;;60.60;9.48;;;;;;;7.51;100.00;101964.94;8336474;28;20486;-57
2024/01/25 06:33:10;;;;;;;63.53;9.20;;;;;;;7.37;100.00;101956.78;8354254;28;20550;-56
2024/01/25 06:37:11;;;;;;;68.57;9.65;;;;;;;7.17;100.00;101959.69;8340637;28;20239;-57
2024/01/25 06:41:12;;;;;;;65.88;8.05;;;;;;;7.16;100.00;101968.72;8340090;28;20817;-56
2024/01/25 06:45:12;;;;;;;53.10;10.43;;;;;;;7.15;100.00;101967.00;8346154;28;20033;-57
2024/01/25 06:49:14;;;;;;;70.32;10.65;;;;;;;7.21;100.00;101963.97;8346968;28;20036;-57
2024/01/25 06:53:14;;;;;;;72.68;10.82;;;;;;;7.13;100.00;101968.88;8346591;28;20347;-56
2024/01/25 06:57:15;;;;;;;78.35;11.20;;;;;;;7.01;100.00;101969.56;8342557;28;20506;-55
2024/01/25 07:01:21;;;;;;;61.72;9.77;;;;;;;6.92;100.00;101964.66;8342468;28;20399;-56
2024/01/25 07:05:21;;;;;;;56.80;10.82;;;;;;;6.77;100.00;101964.63;8346830;28;20037;-56
2024/01/25 07:09:22;;;;;;;64.95;12.65;;;;;;;6.61;100.00;101974.41;8344746;28;20037;-57
2024/01/25 07:13:22;;;;;;;71.53;10.13;;;;;;;6.51;100.00;101968.69;8337098;28;20111;-57
2024/01/25 07:17:22;;;;;;;75.22;13.32;;;;;;;6.52;100.00;101980.31;8340860;28;20099;-56
2024/01/25 07:21:25;;;;;;;86.60;13.05;;;;;;;6.60;100.00;101978.94;8347815;28;20040;-57
2024/01/25 07:25:26;;;;;;;76.43;15.15;;;;;;;6.58;100.00;101972.78;8353399;28;20487;-56
2024/01/25 07:29:26;;;;;;;69.60;12.32;;;;;;;6.54;100.00;101979.25;8344639;28;20086;-58
2024/01/25 07:33:27;;;;;;;85.95;13.30;;;;;;;6.43;100.00;101973.56;8345172;28;20041;-56
2024/01/25 07:37:27;;;;;;;65.55;12.60;;;;;;;6.39;100.00;101969.31;8344678;28;20053;-56
2024/01/25 07:41:27;;;;;;;62.38;11.40;;;;;;;6.48;100.00;101968.84;8345706;28;20037;-57
2024/01/25 07:45:28;;;;;;;79.80;13.55;;;;;;;6.46;100.00;101972.56;8344214;28;20091;-56
2024/01/25 07:49:29;;;;;;;79.57;14.23;;;;;;;6.47;100.00;101977.84;8347365;28;20067;-55
2024/01/25 07:53:29;;;;;;;69.88;13.80;;;;;;;6.41;100.00;101978.16;8345708;28;20548;-57
2024/01/25 07:57:30;;;;;;;77.60;13.27;;;;;;;6.40;100.00;101976.41;8345214;28;20044;-57
2024/01/25 08:01:30;;;;;;;72.90;10.98;;;;;;;6.39;100.00;101990.78;8351686;28;20437;-56
2024/01/25 08:05:31;;;;;;;67.25;13.80;;;;;;;6.65;100.00;101992.16;8351911;28;20884;-57
2024/01/25 08:09:31;;;;;;;81.38;15.35;;;;;;;6.98;100.00;101996.59;8342775;28;20045;-56
2024/01/25 08:13:31;;;;;;;77.38;14.90;;;;;;;7.08;100.00;101997.84;8342064;28;20259;-56
2024/01/25 08:17:32;;;;;;;81.25;15.88;;;;;;;7.23;100.00;102005.09;8339077;28;20045;-56
2024/01/25 08:21:32;;;;;;;71.32;15.02;;;;;;;7.35;100.00;102000.88;8340484;28;20050;-55
2024/01/25 08:25:33;;;;;;;72.82;14.15;;;;;;;7.47;100.00;102006.44;8339560;28;20034;-55
2024/01/25 08:29:33;;;;;;;73.43;14.00;;;;;;;7.66;100.00;101995.53;8335519;28;20482;-57
2024/01/25 08:33:34;;;;;;;69.97;16.30;;;;;;;7.79;100.00;101991.19;8335874;28;20037;-55
2024/01/25 08:37:37;;;;;;;65.05;14.63;;;;;;;7.93;100.00;101989.44;8338792;28;20128;-56
2024/01/25 08:41:38;;;;;;;70.88;16.17;;;;;;;8.07;100.00;101999.41;8340916;28;20095;-55
2024/01/25 08:45:38;;;;;;;76.82;14.30;;;;;;;8.16;100.00;102001.56;8337920;28;20042;-55
2024/01/25 08:49:38;;;;;;;62.05;13.32;;;;;;;8.36;100.00;101992.38;8339559;28;20041;-55
2024/01/25 08:53:39;;;;;;;63.90;14.05;;;;;;;8.47;100.00;101988.06;8340496;28;20038;-56
2024/01/25 08:57:41;;;;;;;55.85;13.35;;;;;;;8.70;100.00;101982.19;8340548;28;20045;-56
